Time;durP1;ratioP1;P1;durP2;ratioP2;P2;SDS_P1;SDS_P2;PMS_P1;PMS_P2;Temp;Humidity;BMP_temperature;BMP_pressure;BME280_temperature;BME280_humidity;BME280_pressure;Samples;Min_cycle;Max_cycle;Signal;HPM_P1;HPM_P2
2022/01/27 00:01:52;;;;;;;;;;;3.40;76.30;;;;;;5062401;28;19955;-89
2022/01/27 00:04:24;;;;;;;;;;;3.40;76.40;;;;;;5045574;28;20366;-89
2022/01/27 00:06:49;;;;;;;;;;;3.40;76.50;;;;;;5044448;28;19913;-89
2022/01/27 00:11:52;;;;;;;;;;;3.30;76.70;;;;;;5064967;28;19915;-88
2022/01/27 00:14:21;;;;;;;;;;;3.40;76.80;;;;;;5052960;28;19904;-89
2022/01/27 00:16:58;;;;;;;;;;;3.30;76.80;;;;;;5060188;28;19912;-88
2022/01/27 00:19:24;;;;;;;;;;;3.30;76.80;;;;;;5060257;28;19900;-88
2022/01/27 00:21:50;;;;;;;;;;;3.30;77.00;;;;;;5060851;28;19967;-89
2022/01/27 00:24:16;;;;;;;;;;;3.30;77.00;;;;;;5061189;28;19900;-90
2022/01/27 00:26:44;;;;;;;;;;;3.20;77.20;;;;;;5060957;28;19927;-89
2022/01/27 00:29:10;;;;;;;;;;;3.20;77.30;;;;;;5061025;28;19940;-90
2022/01/27 00:31:36;;;;;;;;;;;3.20;77.30;;;;;;5060815;28;19896;-90
2022/01/27 00:34:04;;;;;;;;;;;3.20;77.40;;;;;;5050195;28;19904;-88
2022/01/27 00:36:30;;;;;;;;;;;3.10;77.50;;;;;;5045031;28;20361;-88
2022/01/27 00:38:56;;;;;;;;;;;3.10;77.60;;;;;;5044916;28;19912;-89
2022/01/27 00:41:22;;;;;;;;;;;3.10;77.60;;;;;;5044497;28;19916;-89
2022/01/27 00:43:48;;;;;;;;;;;3.10;77.70;;;;;;5044179;28;19924;-91
2022/01/27 00:46:16;;;;;;;;;;;3.10;77.80;;;;;;5042743;28;19984;-90
2022/01/27 00:48:43;;;;;;;;;;;3.10;77.80;;;;;;5043247;28;20357;-90
2022/01/27 00:51:13;;;;;;;;;;;3.10;77.90;;;;;;5042943;28;19897;-90
2022/01/27 00:53:50;;;;;;;;;;;3.10;77.90;;;;;;5043256;28;20334;-90
2022/01/27 00:56:32;;;;;;;;;;;3.10;77.90;;;;;;5042264;28;19963;-90
2022/01/27 01:04:41;;;;;;;;;;;3.10;78.10;;;;;;5059970;28;19911;-89
2022/01/27 01:07:08;;;;;;;;;;;3.10;78.20;;;;;;5042652;28;19916;-89
2022/01/27 01:20:36;;;;;;;;;;;3.00;78.30;;;;;;5065409;28;19988;-89
2022/01/27 01:33:12;;;;;;;;;;;3.10;78.30;;;;;;5060022;28;19905;-91
2022/01/27 01:35:48;;;;;;;;;;;3.10;78.10;;;;;;5042180;28;19909;-90
2022/01/27 01:38:18;;;;;;;;;;;3.10;78.10;;;;;;5042549;28;20083;-89
2022/01/27 01:40:45;;;;;;;;;;;3.00;78.20;;;;;;5041705;28;19921;-89
2022/01/27 01:43:10;;;;;;;;;;;3.10;78.10;;;;;;5042245;28;19962;-90
2022/01/27 01:45:36;;;;;;;;;;;3.10;78.00;;;;;;5042221;28;19896;-89
2022/01/27 01:48:01;;;;;;;;;;;3.10;77.90;;;;;;5042590;28;19909;-89
2022/01/27 01:50:30;;;;;;;;;;;3.10;78.00;;;;;;5041781;28;19920;-90
2022/01/27 01:52:55;;;;;;;;;;;3.10;78.00;;;;;;5043909;28;19909;-90
2022/01/27 01:55:21;;;;;;;;;;;3.00;78.10;;;;;;5043673;28;19911;-90
2022/01/27 01:57:47;;;;;;;;;;;3.00;78.10;;;;;;5043560;28;19909;-90
2022/01/27 02:00:13;;;;;;;;;;;3.00;78.10;;;;;;5043657;28;19901;-91
2022/01/27 02:02:41;;;;;;;;;;;2.90;78.20;;;;;;5043661;28;19958;-91
2022/01/27 02:05:08;;;;;;;;;;;3.00;78.20;;;;;;5042048;28;19908;-89
2022/01/27 02:10:28;;;;;;;;;;;2.90;78.20;;;;;;5061128;28;19912;-91
2022/01/27 02:18:23;;;;;;;;;;;2.80;78.30;;;;;;5045617;28;19947;-90
2022/01/27 02:20:49;;;;;;;;;;;2.80;78.20;;;;;;5029729;28;20305;-90
2022/01/27 02:23:14;;;;;;;;;;;2.80;78.30;;;;;;5026808;28;19905;-89
2022/01/27 02:25:40;;;;;;;;;;;2.90;78.10;;;;;;5038198;28;19909;-90
2022/01/27 02:28:05;;;;;;;;;;;2.80;78.10;;;;;;5046129;28;19916;-90
2022/01/27 02:30:34;;;;;;;;;;;2.90;78.10;;;;;;5047114;28;19909;-89
2022/01/27 02:32:59;;;;;;;;;;;2.90;78.10;;;;;;5026267;28;19896;-90
2022/01/27 02:35:27;;;;;;;;;;;2.90;78.00;;;;;;5039497;28;19919;-90
2022/01/27 02:37:53;;;;;;;;;;;2.90;77.80;;;;;;5046217;28;19939;-90
2022/01/27 02:40:23;;;;;;;;;;;2.90;77.80;;;;;;5046003;28;20368;-90
2022/01/27 02:42:48;;;;;;;;;;;2.90;77.80;;;;;;5045870;28;19909;-91
2022/01/27 02:45:21;;;;;;;;;;;2.90;77.70;;;;;;5046751;28;20059;-90
2022/01/27 02:47:46;;;;;;;;;;;3.00;77.60;;;;;;5046857;28;19950;-89
2022/01/27 02:50:12;;;;;;;;;;;3.00;77.50;;;;;;5046460;28;19908;-89
2022/01/27 02:52:38;;;;;;;;;;;3.00;77.40;;;;;;5046085;28;20380;-90
2022/01/27 02:55:04;;;;;;;;;;;3.00;77.10;;;;;;5045581;28;19909;-90
2022/01/27 02:57:30;;;;;;;;;;;3.00;77.00;;;;;;5046113;28;19951;-90
2022/01/27 02:59:55;;;;;;;;;;;3.00;77.00;;;;;;5046058;28;19909;-89
2022/01/27 03:02:22;;;;;;;;;;;3.00;77.00;;;;;;5046054;28;19912;-89
2022/01/27 03:04:47;;;;;;;;;;;3.00;77.00;;;;;;5045383;28;19905;-89
2022/01/27 03:07:14;;;;;;;;;;;2.90;77.10;;;;;;5045984;28;19913;-90
2022/01/27 03:09:39;;;;;;;;;;;3.00;77.10;;;;;;5046042;28;19904;-90
2022/01/27 03:12:11;;;;;;;;;;;3.00;77.10;;;;;;5047734;28;19947;-90
2022/01/27 03:14:37;;;;;;;;;;;3.00;77.10;;;;;;5049899;28;19923;-90
2022/01/27 03:17:03;;;;;;;;;;;3.00;76.90;;;;;;5058456;28;19980;-90
2022/01/27 03:19:35;;;;;;;;;;;3.00;76.60;;;;;;5051603;28;19916;-89
2022/01/27 03:22:03;;;;;;;;;;;3.00;76.60;;;;;;5048938;28;19904;-89
2022/01/27 03:24:32;;;;;;;;;;;3.00;76.70;;;;;;5048294;28;19952;-89
2022/01/27 03:26:57;;;;;;;;;;;3.00;76.50;;;;;;5051051;28;19924;-90
2022/01/27 03:29:23;;;;;;;;;;;3.00;76.60;;;;;;5060782;28;19936;-90
2022/01/27 03:31:49;;;;;;;;;;;3.00;76.60;;;;;;5061076;28;19916;-90
2022/01/27 03:34:21;;;;;;;;;;;2.90;76.50;;;;;;5061713;28;19917;-89
2022/01/27 03:36:46;;;;;;;;;;;2.90;76.50;;;;;;5061645;28;19897;-88
2022/01/27 03:39:16;;;;;;;;;;;2.90;76.70;;;;;;5062259;28;19920;-89
2022/01/27 03:41:49;;;;;;;;;;;2.90;76.80;;;;;;5061911;28;19900;-89
2022/01/27 03:44:17;;;;;;;;;;;2.90;76.80;;;;;;5062730;28;19908;-89
2022/01/27 03:46:43;;;;;;;;;;;2.80;76.80;;;;;;5054899;28;19909;-89
2022/01/27 03:49:10;;;;;;;;;;;2.90;76.90;;;;;;5052796;28;19905;-90
2022/01/27 03:51:35;;;;;;;;;;;2.80;77.00;;;;;;5051404;28;20408;-90
2022/01/27 03:54:01;;;;;;;;;;;2.80;77.00;;;;;;5048997;28;19905;-90
2022/01/27 03:56:26;;;;;;;;;;;2.90;77.20;;;;;;5046323;28;19905;-89
2022/01/27 03:58:55;;;;;;;;;;;2.90;77.20;;;;;;5046220;28;19920;-90
2022/01/27 04:01:20;;;;;;;;;;;2.90;77.20;;;;;;5045506;28;20392;-89
2022/01/27 04:03:47;;;;;;;;;;;2.80;77.10;;;;;;5044566;28;19947;-90
2022/01/27 04:06:19;;;;;;;;;;;2.80;77.30;;;;;;5044282;28;19946;-90
2022/01/27 04:08:45;;;;;;;;;;;2.80;77.40;;;;;;5041601;28;19953;-90
2022/01/27 04:11:10;;;;;;;;;;;2.80;77.50;;;;;;5024246;28;19927;-90
2022/01/27 04:13:36;;;;;;;;;;;2.80;77.60;;;;;;5040970;28;19905;-90
2022/01/27 04:16:03;;;;;;;;;;;2.80;77.70;;;;;;5044543;28;19908;-90
2022/01/27 04:18:28;;;;;;;;;;;2.80;77.70;;;;;;5028241;28;19936;-89
2022/01/27 04:20:55;;;;;;;;;;;2.80;77.80;;;;;;5045038;28;19905;-88
2022/01/27 04:23:20;;;;;;;;;;;2.80;77.90;;;;;;5043854;28;19908;-88
2022/01/27 04:25:48;;;;;;;;;;;2.80;78.00;;;;;;5045532;28;19978;-90
2022/01/27 04:28:19;;;;;;;;;;;2.80;78.10;;;;;;5045500;28;19912;-90
2022/01/27 04:30:45;;;;;;;;;;;2.80;78.20;;;;;;5045951;28;20546;-90
2022/01/27 04:33:11;;;;;;;;;;;2.80;78.20;;;;;;5045346;28;20292;-90
2022/01/27 04:35:43;;;;;;;;;;;2.70;78.30;;;;;;5062956;28;19911;-90
2022/01/27 04:46:01;;;;;;;;;;;2.70;78.40;;;;;;5061508;28;20031;-90
2022/01/27 04:48:30;;;;;;;;;;;2.70;78.50;;;;;;5043577;28;20019;-90
2022/01/27 04:51:04;;;;;;;;;;;2.80;78.50;;;;;;5043069;28;19962;-89
2022/01/27 04:53:35;;;;;;;;;;;2.70;78.50;;;;;;5043537;28;19905;-90
2022/01/27 04:56:01;;;;;;;;;;;2.70;78.60;;;;;;5045312;28;19932;-90
2022/01/27 04:58:32;;;;;;;;;;;2.70;78.60;;;;;;5045568;28;19927;-89
2022/01/27 05:01:00;;;;;;;;;;;2.70;78.70;;;;;;5043809;28;19905;-88
2022/01/27 05:06:15;;;;;;;;;;;2.80;78.80;;;;;;5056674;28;20316;-90
2022/01/27 05:08:44;;;;;;;;;;;2.70;78.80;;;;;;5045783;28;20370;-90
2022/01/27 05:11:16;;;;;;;;;;;2.80;78.80;;;;;;5043765;28;19956;-90
2022/01/27 05:13:52;;;;;;;;;;;2.70;78.90;;;;;;5042970;28;20278;-88
2022/01/27 05:16:18;;;;;;;;;;;2.80;79.00;;;;;;5043183;28;19936;-89
2022/01/27 05:18:46;;;;;;;;;;;2.70;79.10;;;;;;5043641;28;19908;-89
2022/01/27 05:21:12;;;;;;;;;;;2.80;79.10;;;;;;5044294;28;19905;-90
2022/01/27 05:23:37;;;;;;;;;;;2.80;79.10;;;;;;5043212;28;19958;-89
2022/01/27 05:26:03;;;;;;;;;;;2.70;79.20;;;;;;5044032;28;19913;-90
2022/01/27 05:28:29;;;;;;;;;;;2.80;79.10;;;;;;5043273;28;20318;-89
2022/01/27 05:30:54;;;;;;;;;;;2.80;79.20;;;;;;5043238;28;19916;-90
2022/01/27 05:33:20;;;;;;;;;;;2.80;79.10;;;;;;5042932;28;20437;-89
2022/01/27 05:35:46;;;;;;;;;;;2.80;79.10;;;;;;5043338;28;20391;-90
2022/01/27 05:38:12;;;;;;;;;;;2.80;79.00;;;;;;5043953;28;19912;-90
2022/01/27 05:40:38;;;;;;;;;;;2.80;79.00;;;;;;5043640;28;19938;-90
2022/01/27 05:43:04;;;;;;;;;;;2.80;79.00;;;;;;5043710;28;19913;-91
2022/01/27 05:45:32;;;;;;;;;;;2.80;79.00;;;;;;5043206;28;19963;-90
2022/01/27 05:47:57;;;;;;;;;;;2.80;79.00;;;;;;5042865;28;19909;-91
2022/01/27 05:50:23;;;;;;;;;;;2.80;79.00;;;;;;5045415;28;19948;-89
2022/01/27 05:52:49;;;;;;;;;;;2.80;78.90;;;;;;5046103;28;19990;-89
2022/01/27 05:55:15;;;;;;;;;;;2.80;79.00;;;;;;5045816;28;19896;-90
2022/01/27 05:57:43;;;;;;;;;;;2.80;79.00;;;;;;5045946;28;19954;-90
2022/01/27 06:00:10;;;;;;;;;;;2.80;79.00;;;;;;5046204;28;19909;-90
2022/01/27 06:02:36;;;;;;;;;;;2.80;78.90;;;;;;5046866;28;19904;-90
2022/01/27 06:05:09;;;;;;;;;;;2.90;78.90;;;;;;5047539;28;20384;-91
2022/01/27 06:07:35;;;;;;;;;;;2.90;78.80;;;;;;5047326;28;19986;-89
2022/01/27 06:10:01;;;;;;;;;;;2.80;78.80;;;;;;5046754;28;20009;-90
2022/01/27 06:12:27;;;;;;;;;;;2.90;78.80;;;;;;5046105;28;19932;-90
2022/01/27 06:14:52;;;;;;;;;;;2.90;78.80;;;;;;5045555;28;19963;-90
2022/01/27 06:17:18;;;;;;;;;;;2.90;78.70;;;;;;5047805;28;19908;-90
2022/01/27 06:19:46;;;;;;;;;;;3.00;78.70;;;;;;5049781;28;20360;-91
2022/01/27 06:22:14;;;;;;;;;;;3.10;78.60;;;;;;5052045;28;19968;-90
2022/01/27 06:24:44;;;;;;;;;;;3.10;78.60;;;;;;5048665;28;20273;-90
2022/01/27 06:27:10;;;;;;;;;;;3.10;78.50;;;;;;5042795;28;19976;-91
2022/01/27 06:29:35;;;;;;;;;;;3.10;78.40;;;;;;5041692;28;20008;-88
2022/01/27 06:32:01;;;;;;;;;;;3.10;78.40;;;;;;5043478;28;20000;-90
2022/01/27 06:34:26;;;;;;;;;;;3.20;78.40;;;;;;5042930;28;19909;-88
2022/01/27 06:36:52;;;;;;;;;;;3.20;78.40;;;;;;5044283;28;19916;-90
2022/01/27 06:39:18;;;;;;;;;;;3.20;78.30;;;;;;5044928;28;19897;-90
2022/01/27 06:41:44;;;;;;;;;;;3.20;78.20;;;;;;5054428;28;19913;-89
2022/01/27 06:44:10;;;;;;;;;;;3.30;78.10;;;;;;5057945;28;19896;-89
2022/01/27 06:46:36;;;;;;;;;;;3.30;78.00;;;;;;5058545;28;19924;-90
2022/01/27 06:49:05;;;;;;;;;;;3.20;78.00;;;;;;5059416;28;19901;-90
2022/01/27 06:51:31;;;;;;;;;;;3.20;78.00;;;;;;5059979;28;19897;-88
2022/01/27 06:53:57;;;;;;;;;;;3.30;78.00;;;;;;5059807;28;19897;-88
2022/01/27 06:56:23;;;;;;;;;;;3.30;77.90;;;;;;5059707;28;19897;-89
2022/01/27 06:58:49;;;;;;;;;;;3.30;77.80;;;;;;5057732;28;19904;-87
2022/01/27 07:01:15;;;;;;;;;;;3.30;77.70;;;;;;5044591;28;19909;-88
2022/01/27 07:03:40;;;;;;;;;;;3.30;77.60;;;;;;5043388;28;19905;-92
2022/01/27 07:06:06;;;;;;;;;;;3.30;77.60;;;;;;5041083;28;19917;-87
2022/01/27 07:08:31;;;;;;;;;;;3.30;77.30;;;;;;5039457;28;19916;-87
2022/01/27 07:10:57;;;;;;;;;;;3.30;77.30;;;;;;5040981;28;19951;-87
2022/01/27 07:13:23;;;;;;;;;;;3.30;77.30;;;;;;5041574;28;19909;-88
2022/01/27 07:15:48;;;;;;;;;;;3.30;77.20;;;;;;5042429;28;19912;-88
2022/01/27 07:18:14;;;;;;;;;;;3.30;77.20;;;;;;5045113;28;19909;-88
2022/01/27 07:20:39;;;;;;;;;;;3.30;77.10;;;;;;5043790;28;19997;-85
2022/01/27 07:23:09;;;;;;;;;;;3.30;77.10;;;;;;5041893;28;19912;-85
2022/01/27 07:25:35;;;;;;;;;;;3.30;77.00;;;;;;5042394;28;19913;-86
2022/01/27 07:28:00;;;;;;;;;;;3.30;76.90;;;;;;5040567;28;19962;-85
2022/01/27 07:30:52;;;;;;;;;;;3.40;76.80;;;;;;5033166;28;19908;-84
2022/01/27 07:33:17;;;;;;;;;;;3.40;76.70;;;;;;5029952;28;19984;-84
2022/01/27 07:35:43;;;;;;;;;;;3.40;76.50;;;;;;5035146;28;19947;-83
2022/01/27 07:38:08;;;;;;;;;;;3.40;76.30;;;;;;5036460;28;19909;-83
2022/01/27 07:40:35;;;;;;;;;;;3.40;76.30;;;;;;5037503;28;19916;-86
2022/01/27 07:43:01;;;;;;;;;;;3.40;76.20;;;;;;5039974;28;19909;-85
2022/01/27 07:45:27;;;;;;;;;;;3.40;76.10;;;;;;5037966;28;19921;-86
2022/01/27 07:47:52;;;;;;;;;;;3.40;76.00;;;;;;5035483;28;19909;-85
2022/01/27 07:50:18;;;;;;;;;;;3.50;75.60;;;;;;5035873;28;19987;-85
2022/01/27 07:52:44;;;;;;;;;;;3.40;75.70;;;;;;5035713;28;19915;-85
2022/01/27 07:55:10;;;;;;;;;;;3.50;75.30;;;;;;5034270;28;19909;-86
2022/01/27 07:57:36;;;;;;;;;;;3.50;75.10;;;;;;5039660;28;19913;-86
2022/01/27 08:00:03;;;;;;;;;;;3.50;75.20;;;;;;5043174;28;19909;-84
2022/01/27 08:02:31;;;;;;;;;;;3.60;75.20;;;;;;5036892;28;19916;-85
2022/01/27 08:04:57;;;;;;;;;;;3.70;75.10;;;;;;5034503;28;19909;-86
2022/01/27 08:07:22;;;;;;;;;;;3.70;74.90;;;;;;5035388;28;19999;-86
2022/01/27 08:09:51;;;;;;;;;;;3.80;74.80;;;;;;5036332;28;20251;-83
2022/01/27 08:12:16;;;;;;;;;;;3.80;74.80;;;;;;5039795;28;19915;-84
2022/01/27 08:14:41;;;;;;;;;;;3.90;74.30;;;;;;5033776;28;20000;-85
2022/01/27 08:17:07;;;;;;;;;;;4.00;74.00;;;;;;5033922;28;19909;-85
2022/01/27 08:19:33;;;;;;;;;;;4.10;73.70;;;;;;5032596;28;19916;-85
2022/01/27 08:21:58;;;;;;;;;;;4.30;73.80;;;;;;5033103;28;19913;-85
2022/01/27 08:24:24;;;;;;;;;;;4.40;73.50;;;;;;5033073;28;20366;-85
2022/01/27 08:26:52;;;;;;;;;;;4.40;73.30;;;;;;5032505;28;19920;-84
2022/01/27 08:29:27;;;;;;;;;;;4.40;73.00;;;;;;5036464;28;19913;-84
2022/01/27 08:34:33;;;;;;;;;;;4.40;72.60;;;;;;5054124;28;19909;-85
2022/01/27 08:37:01;;;;;;;;;;;4.40;72.50;;;;;;5034306;28;19916;-85
2022/01/27 08:39:27;;;;;;;;;;;4.40;72.50;;;;;;5035099;28;19917;-84
2022/01/27 08:41:53;;;;;;;;;;;4.40;72.40;;;;;;5036454;28;19915;-83
2022/01/27 08:44:18;;;;;;;;;;;4.40;72.10;;;;;;5054347;28;19909;-85
2022/01/27 08:46:44;;;;;;;;;;;4.50;72.10;;;;;;5052085;28;19924;-85
2022/01/27 08:49:09;;;;;;;;;;;4.60;72.00;;;;;;5036349;28;20332;-85
2022/01/27 08:51:35;;;;;;;;;;;4.60;71.80;;;;;;5053928;28;19958;-84
2022/01/27 08:54:01;;;;;;;;;;;4.70;71.60;;;;;;5036009;28;20020;-85
2022/01/27 08:56:26;;;;;;;;;;;4.80;71.10;;;;;;5035987;28;20393;-84
2022/01/27 08:58:53;;;;;;;;;;;4.90;70.30;;;;;;5036275;28;19917;-84
2022/01/27 09:01:20;;;;;;;;;;;4.90;69.70;;;;;;5035633;28;19909;-85
2022/01/27 09:03:46;;;;;;;;;;;4.80;69.60;;;;;;5035694;28;19905;-85
2022/01/27 09:06:12;;;;;;;;;;;4.90;69.80;;;;;;5035750;28;19920;-84
2022/01/27 09:08:37;;;;;;;;;;;5.00;69.70;;;;;;5035564;28;19908;-85
2022/01/27 09:11:03;;;;;;;;;;;5.10;69.50;;;;;;5036328;28;20010;-85
2022/01/27 09:13:28;;;;;;;;;;;5.30;69.20;;;;;;5036043;28;20296;-85
2022/01/27 09:15:58;;;;;;;;;;;5.30;68.60;;;;;;5053671;28;19915;-85
2022/01/27 09:18:23;;;;;;;;;;;5.30;68.20;;;;;;5035518;28;19974;-86
2022/01/27 09:20:49;;;;;;;;;;;5.30;68.40;;;;;;5035559;28;20009;-84
2022/01/27 09:23:15;;;;;;;;;;;5.30;68.40;;;;;;5034343;28;19917;-85
2022/01/27 09:25:47;;;;;;;;;;;5.30;68.40;;;;;;5034140;28;20026;-83
2022/01/27 09:28:13;;;;;;;;;;;5.30;68.00;;;;;;5031058;28;19920;-84
2022/01/27 09:30:39;;;;;;;;;;;5.30;67.90;;;;;;5032135;28;19909;-85
2022/01/27 09:33:05;;;;;;;;;;;5.30;67.90;;;;;;5032418;28;19909;-85
2022/01/27 09:35:31;;;;;;;;;;;5.30;68.10;;;;;;5033234;28;19920;-85
2022/01/27 09:37:58;;;;;;;;;;;5.30;67.60;;;;;;5033478;28;19909;-84
2022/01/27 09:40:24;;;;;;;;;;;5.30;67.80;;;;;;5032133;28;19996;-84
2022/01/27 09:42:52;;;;;;;;;;;5.30;67.90;;;;;;5035644;28;19909;-86
2022/01/27 09:45:18;;;;;;;;;;;5.30;67.70;;;;;;5036072;28;19917;-87
2022/01/27 09:47:53;;;;;;;;;;;5.30;67.90;;;;;;5035297;28;19917;-85
2022/01/27 09:50:26;;;;;;;;;;;5.30;67.90;;;;;;5048343;28;19909;-85
2022/01/27 09:52:51;;;;;;;;;;;5.40;67.70;;;;;;5053350;28;19917;-89
2022/01/27 09:55:17;;;;;;;;;;;5.30;67.40;;;;;;5055604;28;19907;-89
2022/01/27 09:57:45;;;;;;;;;;;5.40;67.30;;;;;;5056428;28;19904;-88
2022/01/27 10:00:12;;;;;;;;;;;5.40;67.30;;;;;;5057449;28;19898;-89
2022/01/27 10:05:44;;;;;;;;;;;5.40;66.00;;;;;;5056530;28;19912;-92
2022/01/27 10:08:18;;;;;;;;;;;5.30;66.50;;;;;;5048078;28;19916;-90
2022/01/27 10:10:45;;;;;;;;;;;5.30;66.40;;;;;;5043640;28;19916;-91
2022/01/27 10:13:26;;;;;;;;;;;5.30;66.60;;;;;;5042342;28;20138;-90
2022/01/27 10:15:56;;;;;;;;;;;5.40;66.50;;;;;;5042453;28;19928;-88
2022/01/27 10:18:25;;;;;;;;;;;5.40;66.20;;;;;;5038950;28;19909;-90
2022/01/27 10:20:51;;;;;;;;;;;5.50;66.40;;;;;;5036797;28;19916;-90
2022/01/27 10:23:19;;;;;;;;;;;5.50;65.80;;;;;;5036346;28;19917;-90
2022/01/27 10:25:47;;;;;;;;;;;5.60;65.60;;;;;;5035830;28;19925;-92
2022/01/27 10:28:41;;;;;;;;;;;5.50;65.50;;;;;;5035569;28;19923;-91
2022/01/27 10:31:08;;;;;;;;;;;5.50;65.20;;;;;;5031455;28;19967;-90
2022/01/27 10:33:45;;;;;;;;;;;5.50;63.80;;;;;;5036208;28;19909;-91
2022/01/27 10:36:32;;;;;;;;;;;5.40;64.40;;;;;;5035086;28;19916;-91
2022/01/27 10:38:59;;;;;;;;;;;5.40;64.70;;;;;;5040263;28;20362;-91
2022/01/27 10:41:25;;;;;;;;;;;5.40;63.60;;;;;;5040364;28;19972;-91
2022/01/27 10:44:03;;;;;;;;;;;5.40;63.90;;;;;;5039800;28;19958;-91
2022/01/27 10:46:30;;;;;;;;;;;5.30;64.20;;;;;;5039676;28;19967;-91
2022/01/27 10:49:07;;;;;;;;;;;5.30;64.50;;;;;;5040160;28;19909;-90
2022/01/27 10:51:45;;;;;;;;;;;5.30;63.90;;;;;;5039875;28;19917;-91
2022/01/27 10:54:21;;;;;;;;;;;5.30;63.80;;;;;;5039370;28;19909;-89
2022/01/27 10:56:47;;;;;;;;;;;5.30;63.70;;;;;;5040128;28;19931;-90
2022/01/27 10:59:14;;;;;;;;;;;5.30;63.30;;;;;;5039328;28;19916;-90
2022/01/27 11:01:41;;;;;;;;;;;5.30;63.30;;;;;;5040402;28;20385;-91
2022/01/27 11:04:07;;;;;;;;;;;5.30;63.10;;;;;;5037680;28;19909;-91
2022/01/27 11:06:34;;;;;;;;;;;5.30;62.50;;;;;;5041336;28;19912;-92
2022/01/27 11:09:07;;;;;;;;;;;5.20;62.90;;;;;;5040843;28;19915;-88
2022/01/27 11:11:35;;;;;;;;;;;5.10;63.20;;;;;;5043468;28;19948;-92
2022/01/27 11:17:29;;;;;;;;;;;4.90;63.90;;;;;;5023311;28;19916;-92
2022/01/27 11:20:18;;;;;;;;;;;5.00;63.40;;;;;;4985156;28;19933;-91
2022/01/27 11:23:11;;;;;;;;;;;4.90;63.70;;;;;;5021166;28;20318;-91
2022/01/27 11:28:03;;;;;;;;;;;4.90;63.60;;;;;;5051690;28;19913;-91
2022/01/27 11:30:35;;;;;;;;;;;4.90;63.40;;;;;;5044710;28;20038;-90
2022/01/27 11:33:06;;;;;;;;;;;4.80;63.60;;;;;;5043111;28;19909;-91
2022/01/27 11:35:32;;;;;;;;;;;4.80;63.60;;;;;;5043693;28;20394;-92
2022/01/27 11:38:00;;;;;;;;;;;4.80;63.30;;;;;;5063593;28;19905;-92
2022/01/27 11:40:35;;;;;;;;;;;4.80;63.20;;;;;;5044937;28;19916;-91
2022/01/27 11:43:06;;;;;;;;;;;4.80;63.20;;;;;;5044650;28;20425;-91
2022/01/27 11:45:36;;;;;;;;;;;4.80;62.90;;;;;;5044913;28;19943;-91
2022/01/27 11:48:08;;;;;;;;;;;4.70;63.10;;;;;;5042875;28;19908;-91
2022/01/27 11:50:47;;;;;;;;;;;4.70;63.30;;;;;;5044181;28;19915;-92
2022/01/27 11:53:26;;;;;;;;;;;4.60;63.50;;;;;;5043707;28;19909;-90
2022/01/27 11:55:52;;;;;;;;;;;4.60;63.50;;;;;;5044333;28;19908;-87
2022/01/27 11:58:23;;;;;;;;;;;4.60;63.60;;;;;;5044022;28;20415;-91
2022/01/27 12:01:01;;;;;;;;;;;4.50;63.70;;;;;;5042695;28;19909;-92
2022/01/27 12:03:27;;;;;;;;;;;4.60;63.70;;;;;;5043959;28;19909;-92
2022/01/27 12:06:11;;;;;;;;;;;4.60;63.70;;;;;;5044237;28;19956;-91
2022/01/27 12:08:36;;;;;;;;;;;4.60;63.80;;;;;;5034924;28;19932;-91
2022/01/27 12:11:06;;;;;;;;;;;4.60;63.60;;;;;;5043291;28;19909;-90
2022/01/27 12:13:38;;;;;;;;;;;4.60;63.40;;;;;;5042725;28;19917;-92
2022/01/27 12:19:14;;;;;;;;;;;4.60;63.50;;;;;;5052567;28;19909;-91
2022/01/27 12:21:44;;;;;;;;;;;4.60;63.50;;;;;;4936606;28;20005;-92
2022/01/27 12:24:14;;;;;;;;;;;4.70;63.80;;;;;;5024649;28;19905;-92
2022/01/27 12:26:53;;;;;;;;;;;4.80;63.50;;;;;;5039783;28;19951;-91
2022/01/27 12:29:32;;;;;;;;;;;4.80;62.70;;;;;;5044064;28;20365;-92
2022/01/27 12:31:59;;;;;;;;;;;4.70;62.30;;;;;;5040462;28;19959;-91
2022/01/27 12:34:25;;;;;;;;;;;4.60;62.70;;;;;;5042809;28;20411;-91
2022/01/27 12:37:00;;;;;;;;;;;4.60;63.10;;;;;;5043148;28;19908;-90
2022/01/27 12:39:28;;;;;;;;;;;4.60;63.00;;;;;;5042179;28;19912;-90
2022/01/27 12:41:54;;;;;;;;;;;4.60;63.10;;;;;;5041659;28;19909;-90
2022/01/27 12:44:25;;;;;;;;;;;4.60;63.30;;;;;;5041768;28;19908;-91
2022/01/27 12:47:04;;;;;;;;;;;4.60;63.10;;;;;;5041535;28;20412;-91
2022/01/27 12:49:40;;;;;;;;;;;4.60;63.20;;;;;;5041937;28;20004;-91
2022/01/27 12:52:07;;;;;;;;;;;4.50;63.10;;;;;;5034678;28;20012;-91
2022/01/27 12:54:34;;;;;;;;;;;4.50;63.30;;;;;;5043585;28;19909;-90
2022/01/27 12:56:59;;;;;;;;;;;4.50;63.40;;;;;;5026399;28;19913;-87
2022/01/27 12:59:42;;;;;;;;;;;4.50;63.30;;;;;;5044369;28;19913;-89
2022/01/27 13:02:09;;;;;;;;;;;4.50;63.60;;;;;;5073436;28;19908;-91
2022/01/27 13:04:38;;;;;;;;;;;4.50;63.70;;;;;;5056494;28;19901;-92
2022/01/27 13:07:05;;;;;;;;;;;4.50;63.60;;;;;;5057808;28;19905;-92
2022/01/27 13:09:34;;;;;;;;;;;4.50;63.70;;;;;;5057512;28;19969;-90
2022/01/27 13:12:09;;;;;;;;;;;4.50;63.80;;;;;;5060120;28;19897;-91
2022/01/27 13:14:46;;;;;;;;;;;4.40;64.00;;;;;;5060291;28;19915;-91
2022/01/27 13:17:17;;;;;;;;;;;4.40;64.00;;;;;;5060770;28;19928;-91
2022/01/27 13:19:46;;;;;;;;;;;4.50;63.90;;;;;;5046686;28;19912;-92
2022/01/27 13:22:17;;;;;;;;;;;4.50;63.90;;;;;;5044705;28;19911;-91
2022/01/27 13:24:49;;;;;;;;;;;4.50;64.10;;;;;;5043875;28;20006;-91
2022/01/27 13:27:15;;;;;;;;;;;4.50;64.10;;;;;;5042678;28;20403;-90
2022/01/27 13:29:47;;;;;;;;;;;4.40;64.10;;;;;;5042848;28;19913;-91
2022/01/27 13:32:13;;;;;;;;;;;4.50;64.10;;;;;;5042285;28;19915;-91
2022/01/27 13:34:57;;;;;;;;;;;4.40;64.20;;;;;;5044835;28;19909;-91
2022/01/27 13:37:30;;;;;;;;;;;4.40;64.40;;;;;;5044659;28;20267;-92
2022/01/27 13:42:24;;;;;;;;;;;4.40;64.40;;;;;;5067090;28;20290;-92
2022/01/27 13:44:53;;;;;;;;;;;4.50;64.50;;;;;;5049881;28;19944;-92
2022/01/27 13:47:38;;;;;;;;;;;4.50;64.50;;;;;;5044747;28;19921;-92
2022/01/27 13:50:14;;;;;;;;;;;4.50;64.40;;;;;;5044522;28;19991;-92
2022/01/27 13:52:44;;;;;;;;;;;4.50;64.50;;;;;;5036658;28;19908;-91
2022/01/27 13:55:14;;;;;;;;;;;4.40;64.40;;;;;;5043560;28;19908;-92
2022/01/27 13:57:48;;;;;;;;;;;4.40;64.30;;;;;;5042996;28;20312;-91
2022/01/27 14:00:17;;;;;;;;;;;4.40;64.50;;;;;;5043300;28;19915;-92
2022/01/27 14:02:45;;;;;;;;;;;4.30;64.70;;;;;;5042407;28;19975;-91
2022/01/27 14:05:18;;;;;;;;;;;4.30;65.00;;;;;;5041573;28;19963;-91
2022/01/27 14:07:52;;;;;;;;;;;4.30;65.00;;;;;;5041431;28;19913;-91
2022/01/27 14:10:26;;;;;;;;;;;4.40;65.10;;;;;;5032590;28;19951;-91
2022/01/27 14:13:04;;;;;;;;;;;4.40;65.00;;;;;;5045015;28;19947;-92
2022/01/27 14:15:48;;;;;;;;;;;4.40;65.10;;;;;;5047376;28;19904;-92
2022/01/27 14:18:14;;;;;;;;;;;4.30;65.10;;;;;;5045392;28;20350;-92
2022/01/27 14:20:50;;;;;;;;;;;4.30;65.40;;;;;;5044828;28;19920;-92
2022/01/27 14:23:17;;;;;;;;;;;4.30;65.50;;;;;;5043817;28;20419;-91
2022/01/27 14:25:54;;;;;;;;;;;4.30;66.20;;;;;;5044096;28;19913;-89
2022/01/27 14:28:20;;;;;;;;;;;4.20;66.30;;;;;;5042082;28;20365;-89
2022/01/27 14:30:46;;;;;;;;;;;4.20;66.60;;;;;;5044424;28;19976;-91
2022/01/27 14:33:14;;;;;;;;;;;4.20;66.60;;;;;;5044629;28;20341;-92
2022/01/27 14:35:42;;;;;;;;;;;4.30;66.50;;;;;;5049326;28;19918;-90
2022/01/27 14:38:11;;;;;;;;;;;4.20;66.60;;;;;;5063882;28;19908;-91
2022/01/27 14:40:38;;;;;;;;;;;4.20;66.70;;;;;;5046189;28;19931;-91
2022/01/27 14:43:05;;;;;;;;;;;4.20;66.80;;;;;;5047254;28;19909;-91
2022/01/27 14:45:31;;;;;;;;;;;4.20;66.80;;;;;;5047956;28;20377;-95
2022/01/27 14:54:15;;;;;;;;;;;4.20;67.00;;;;;;5072717;28;19903;-93
2022/01/27 14:56:52;;;;;;;;;;;4.20;67.30;;;;;;5063895;28;19909;-87
2022/01/27 14:59:19;;;;;;;;;;;4.10;67.70;;;;;;5039437;28;19909;-87
2022/01/27 15:01:45;;;;;;;;;;;4.10;68.10;;;;;;5029023;28;19943;-87
2022/01/27 15:04:10;;;;;;;;;;;4.00;68.80;;;;;;5042529;28;19913;-86
2022/01/27 15:06:36;;;;;;;;;;;4.00;68.90;;;;;;5041933;28;20016;-87
2022/01/27 15:09:05;;;;;;;;;;;3.90;69.20;;;;;;5042315;28;19908;-86
2022/01/27 15:11:31;;;;;;;;;;;3.80;69.40;;;;;;5042053;28;20204;-87
2022/01/27 15:14:04;;;;;;;;;;;3.80;70.60;;;;;;5041494;28;19963;-87
2022/01/27 15:21:45;;;;;;;;;;;3.60;71.50;;;;;;5060961;28;19909;-87
2022/01/27 15:24:11;;;;;;;;;;;3.50;71.80;;;;;;5042919;28;19911;-87
2022/01/27 15:26:36;;;;;;;;;;;3.50;72.20;;;;;;5041552;28;20064;-87
2022/01/27 15:29:08;;;;;;;;;;;3.40;72.60;;;;;;5041638;28;19912;-87
2022/01/27 15:31:35;;;;;;;;;;;3.40;73.00;;;;;;5042147;28;20401;-88
2022/01/27 15:34:01;;;;;;;;;;;3.40;73.30;;;;;;5042676;28;19913;-87
2022/01/27 15:36:26;;;;;;;;;;;3.30;73.50;;;;;;5042120;28;19920;-89
2022/01/27 15:42:05;;;;;;;;;;;3.30;73.90;;;;;;5061516;28;19915;-89
2022/01/27 15:44:30;;;;;;;;;;;3.30;74.20;;;;;;5060764;28;19919;-88
2022/01/27 15:46:56;;;;;;;;;;;3.20;74.30;;;;;;5043123;28;19920;-88
2022/01/27 15:49:22;;;;;;;;;;;3.20;75.00;;;;;;5043657;28;19909;-89
2022/01/27 15:51:47;;;;;;;;;;;3.10;75.50;;;;;;5042370;28;19912;-88
2022/01/27 15:54:13;;;;;;;;;;;3.10;75.70;;;;;;5040698;28;19893;-88
2022/01/27 15:56:39;;;;;;;;;;;3.10;76.20;;;;;;5041212;28;19912;-87
2022/01/27 15:59:05;;;;;;;;;;;3.10;76.00;;;;;;5060215;28;19915;-88